Aérodrome :
LOGIN :

S'inscrire | Disclaimer

   EN    FR    IT 

 










Légende :    VFR   VFR Marginal   IFR   IFR Intensif   IFR Très Intensif
Visi : 
Plafond : 
>= 8 km
>= 3000ft
5 à 8 km
1000 à 3000 ft
1500m à 5 km
500 à 1000 ft
800 à 1500m
200 à 500 ft
< 800m
< 200 ft
Symboles :   Orages  Brouillard  Fortes neiges  Fortes précipitations  Vent > 20 kt
SIGMETs :   Divers  Orages  Givrage  Turbulence  Onde Orograph.  Cendres Volcan.







- Altitude de l'aérodrome : 147 ft
- Code IATA : DUS


EDDL - Düsseldorf Int.

DERNIER METAR :
  • 270450Z 30006KT 8000 -RADZ FEW012 BKN026 BKN050 13/12 Q1009 NOSIG

METARs EXPIRÉS :
  • 270420Z 32004KT 280V340 9999 -RADZ FEW015 SCT025 BKN044 13/12 Q1009 NOSIG
  • 270350Z 32008KT 9999 -RADZ FEW010 SCT014 BKN018 13/12 Q1009 NOSIG
  • 270320Z 25007KT 9999 -RADZ SCT006 BKN008 BKN012 14/13 Q1009 BECMG BKN020
  • 270250Z 25008KT 9999 -RADZ FEW006 BKN009 BKN012 14/13 Q1009 BECMG BKN020
  • 270220Z 24008KT 8000 -RADZ FEW004 BKN007 BKN010 14/13 Q1009 TEMPO BKN012

TAF TAF EDDL
Valide du 27 à 00h jusqu'au 28 à 06h UTC


262300Z 2700/2806 26009KT 9999 SCT035
TEMPO 2702/2708 BKN012
PROB30
TEMPO 2702/2705 4000 RA BKN008
BECMG 2718/2721 VRB03KT
BECMG 2802/2805 24005KT
Pas de NOTAMs connus pour ce terrain.



MET'MAP, la Météo Aéronautique d'un coup d'oeil ! - Copyright ORBIFLY Décembre 2007 - Disclaimer

ORBIFLY MET'MAP TEAM :

Programmation & Développement : Alexandra Zaïnal
Conception & Développement : Baudouin d'Aumeries
Co-Programmation & Développement : Marc-Olivier Méhu
Soutien technique & logistique : Manuel Goepfert

Contact : metmap@orbifly.com




SOURCES & CREDITS :

   NOAA